Rankin, Michigan
Current Conditions -  °F | °C
As of 6:53 PM on Sunday 25 Jan 2015 (Local Time) from KFNT Reporting Station
Clear Clear  
Wind Chill: -16°   Ceiling: Unl
Heat Index: -7°   Visibility: 10mi
Dew Point: -13°   Wind: 17mph
Humidity: 65%   Direction: 60°ENE
Pressure: 29.99"   Gusts: NA
Location:  42.9382°N, 83.8244°W
Report Text: KFNT 252353Z 06015KT 10SM CLR M07/M13 A2999 RMK AO2 SLP169 T10721128 11039 21072 51019
Loading
Personal Weather Stations






























Interactive Weather Map New forecast layout! Learn more

10-Day Weather Forecast

Advertisements
Track Severe Weather on mobile